sensor_id;sensor_type;location;lat;lon;timestamp;P1;durP1;ratioP1;P2;durP2;ratioP2
48026;SDS011;50714;49.208;5.364;2022-07-29T00:07:18;1.25;;;1.10;;
48026;SDS011;50714;49.208;5.364;2022-07-29T00:17:19;1.38;;;1.27;;
48026;SDS011;50714;49.208;5.364;2022-07-29T00:27:20;3.70;;;1.23;;
48026;SDS011;50714;49.208;5.364;2022-07-29T00:37:20;3.28;;;1.38;;
48026;SDS011;50714;49.208;5.364;2022-07-29T00:47:21;2.65;;;1.42;;
48026;SDS011;50714;49.208;5.364;2022-07-29T00:57:21;1.25;;;1.10;;
48026;SDS011;50714;49.208;5.364;2022-07-29T01:07:22;1.40;;;0.90;;
48026;SDS011;50714;49.208;5.364;2022-07-29T01:17:28;1.35;;;1.00;;
48026;SDS011;50714;49.208;5.364;2022-07-29T01:38:05;1.23;;;0.90;;
48026;SDS011;50714;49.208;5.364;2022-07-29T01:48:11;2.60;;;1.30;;
48026;SDS011;50714;49.208;5.364;2022-07-29T01:58:16;1.20;;;1.10;;
48026;SDS011;50714;49.208;5.364;2022-07-29T02:08:19;1.63;;;1.17;;
48026;SDS011;50714;49.208;5.364;2022-07-29T02:18:22;1.83;;;1.20;;
48026;SDS011;50714;49.208;5.364;2022-07-29T02:28:26;1.35;;;1.25;;
48026;SDS011;50714;49.208;5.364;2022-07-29T02:38:29;2.13;;;1.20;;
48026;SDS011;50714;49.208;5.364;2022-07-29T02:59:36;2.80;;;1.25;;
48026;SDS011;50714;49.208;5.364;2022-07-29T03:09:38;1.80;;;1.33;;
48026;SDS011;50714;49.208;5.364;2022-07-29T03:19:41;1.55;;;1.33;;
48026;SDS011;50714;49.208;5.364;2022-07-29T03:29:42;1.52;;;1.17;;
48026;SDS011;50714;49.208;5.364;2022-07-29T03:39:42;1.45;;;1.10;;
48026;SDS011;50714;49.208;5.364;2022-07-29T03:49:44;2.67;;;1.20;;
48026;SDS011;50714;49.208;5.364;2022-07-29T03:59:48;1.27;;;1.13;;
48026;SDS011;50714;49.208;5.364;2022-07-29T04:09:50;1.77;;;1.38;;
48026;SDS011;50714;49.208;5.364;2022-07-29T04:19:50;1.23;;;1.13;;
48026;SDS011;50714;49.208;5.364;2022-07-29T04:29:51;2.40;;;1.23;;
48026;SDS011;50714;49.208;5.364;2022-07-29T04:39:51;1.30;;;1.20;;
48026;SDS011;50714;49.208;5.364;2022-07-29T04:49:52;1.48;;;1.25;;
48026;SDS011;50714;49.208;5.364;2022-07-29T04:59:52;1.30;;;1.20;;
48026;SDS011;50714;49.208;5.364;2022-07-29T05:09:53;1.63;;;1.00;;
48026;SDS011;50714;49.208;5.364;2022-07-29T05:19:53;1.20;;;1.10;;
48026;SDS011;50714;49.208;5.364;2022-07-29T05:29:53;1.80;;;1.40;;
48026;SDS011;50714;49.208;5.364;2022-07-29T05:39:54;3.10;;;1.75;;
48026;SDS011;50714;49.208;5.364;2022-07-29T05:49:54;2.05;;;1.35;;
48026;SDS011;50714;49.208;5.364;2022-07-29T05:59:54;1.40;;;1.30;;
48026;SDS011;50714;49.208;5.364;2022-07-29T06:09:55;1.88;;;1.02;;
48026;SDS011;50714;49.208;5.364;2022-07-29T06:19:55;1.25;;;1.15;;
48026;SDS011;50714;49.208;5.364;2022-07-29T06:29:56;1.90;;;1.45;;
48026;SDS011;50714;49.208;5.364;2022-07-29T06:39:56;3.35;;;1.60;;
48026;SDS011;50714;49.208;5.364;2022-07-29T06:50:15;2.28;;;1.30;;
48026;SDS011;50714;49.208;5.364;2022-07-29T07:00:16;2.58;;;1.30;;
48026;SDS011;50714;49.208;5.364;2022-07-29T07:10:16;3.20;;;1.30;;
48026;SDS011;50714;49.208;5.364;2022-07-29T07:20:17;2.92;;;1.40;;
48026;SDS011;50714;49.208;5.364;2022-07-29T07:30:18;2.33;;;1.10;;
48026;SDS011;50714;49.208;5.364;2022-07-29T07:40:18;2.22;;;1.27;;
48026;SDS011;50714;49.208;5.364;2022-07-29T07:50:18;3.20;;;1.45;;
48026;SDS011;50714;49.208;5.364;2022-07-29T08:00:19;2.67;;;1.20;;
48026;SDS011;50714;49.208;5.364;2022-07-29T08:10:21;2.60;;;1.23;;
48026;SDS011;50714;49.208;5.364;2022-07-29T08:20:47;1.30;;;0.90;;
48026;SDS011;50714;49.208;5.364;2022-07-29T08:30:47;2.20;;;1.10;;
48026;SDS011;50714;49.208;5.364;2022-07-29T08:40:48;1.83;;;1.08;;
48026;SDS011;50714;49.208;5.364;2022-07-29T08:50:50;1.37;;;1.00;;
48026;SDS011;50714;49.208;5.364;2022-07-29T09:00:55;1.75;;;1.08;;
48026;SDS011;50714;49.208;5.364;2022-07-29T09:10:56;1.02;;;0.80;;
48026;SDS011;50714;49.208;5.364;2022-07-29T09:20:57;1.52;;;0.70;;
48026;SDS011;50714;49.208;5.364;2022-07-29T09:31:16;0.95;;;0.80;;
48026;SDS011;50714;49.208;5.364;2022-07-29T09:41:16;1.92;;;1.10;;
48026;SDS011;50714;49.208;5.364;2022-07-29T09:51:17;0.68;;;0.63;;
48026;SDS011;50714;49.208;5.364;2022-07-29T10:01:27;1.50;;;0.85;;
48026;SDS011;50714;49.208;5.364;2022-07-29T10:11:28;1.70;;;0.70;;
48026;SDS011;50714;49.208;5.364;2022-07-29T10:21:28;1.20;;;0.85;;
48026;SDS011;50714;49.208;5.364;2022-07-29T10:31:35;2.72;;;1.00;;
48026;SDS011;50714;49.208;5.364;2022-07-29T10:42:06;0.75;;;0.63;;
48026;SDS011;50714;49.208;5.364;2022-07-29T10:52:12;3.42;;;1.00;;
48026;SDS011;50714;49.208;5.364;2022-07-29T11:22:36;1.65;;;0.90;;
48026;SDS011;50714;49.208;5.364;2022-07-29T11:32:38;1.50;;;0.90;;
48026;SDS011;50714;49.208;5.364;2022-07-29T11:42:41;7.88;;;0.90;;
48026;SDS011;50714;49.208;5.364;2022-07-29T11:52:43;1.30;;;0.73;;
48026;SDS011;50714;49.208;5.364;2022-07-29T12:02:47;2.15;;;0.77;;
48026;SDS011;50714;49.208;5.364;2022-07-29T12:12:51;1.65;;;0.77;;
48026;SDS011;50714;49.208;5.364;2022-07-29T12:22:52;1.65;;;0.88;;
48026;SDS011;50714;49.208;5.364;2022-07-29T12:32:54;0.63;;;0.60;;
48026;SDS011;50714;49.208;5.364;2022-07-29T12:43:04;1.35;;;0.85;;
48026;SDS011;50714;49.208;5.364;2022-07-29T12:53:08;3.83;;;0.90;;
48026;SDS011;50714;49.208;5.364;2022-07-29T13:03:10;0.85;;;0.73;;
48026;SDS011;50714;49.208;5.364;2022-07-29T13:13:12;0.98;;;0.70;;
48026;SDS011;50714;49.208;5.364;2022-07-29T13:23:14;1.40;;;0.60;;
48026;SDS011;50714;49.208;5.364;2022-07-29T13:33:15;1.88;;;0.90;;
48026;SDS011;50714;49.208;5.364;2022-07-29T13:43:15;1.38;;;0.73;;
48026;SDS011;50714;49.208;5.364;2022-07-29T13:53:16;0.68;;;0.68;;
48026;SDS011;50714;49.208;5.364;2022-07-29T14:03:16;1.45;;;0.70;;
48026;SDS011;50714;49.208;5.364;2022-07-29T14:13:16;0.55;;;0.55;;
48026;SDS011;50714;49.208;5.364;2022-07-29T14:23:17;0.50;;;0.50;;
48026;SDS011;50714;49.208;5.364;2022-07-29T14:33:18;0.75;;;0.63;;
48026;SDS011;50714;49.208;5.364;2022-07-29T14:43:18;1.17;;;0.80;;
48026;SDS011;50714;49.208;5.364;2022-07-29T14:53:19;1.27;;;0.57;;
48026;SDS011;50714;49.208;5.364;2022-07-29T15:03:19;1.85;;;0.85;;
48026;SDS011;50714;49.208;5.364;2022-07-29T15:13:19;1.13;;;0.65;;
48026;SDS011;50714;49.208;5.364;2022-07-29T15:23:20;1.63;;;0.65;;
48026;SDS011;50714;49.208;5.364;2022-07-29T15:33:20;0.93;;;0.80;;
48026;SDS011;50714;49.208;5.364;2022-07-29T15:43:21;0.68;;;0.57;;
48026;SDS011;50714;49.208;5.364;2022-07-29T15:53:22;0.50;;;0.50;;
48026;SDS011;50714;49.208;5.364;2022-07-29T16:03:22;1.20;;;0.75;;
48026;SDS011;50714;49.208;5.364;2022-07-29T16:13:23;0.98;;;0.73;;
48026;SDS011;50714;49.208;5.364;2022-07-29T16:23:24;1.33;;;0.70;;
48026;SDS011;50714;49.208;5.364;2022-07-29T16:33:24;1.77;;;0.60;;
48026;SDS011;50714;49.208;5.364;2022-07-29T16:43:25;1.30;;;0.80;;
48026;SDS011;50714;49.208;5.364;2022-07-29T16:53:25;0.50;;;0.40;;
48026;SDS011;50714;49.208;5.364;2022-07-29T17:03:26;0.70;;;0.70;;
48026;SDS011;50714;49.208;5.364;2022-07-29T17:13:26;0.70;;;0.60;;
48026;SDS011;50714;49.208;5.364;2022-07-29T17:23:27;0.77;;;0.50;;
48026;SDS011;50714;49.208;5.364;2022-07-29T17:33:28;0.80;;;0.70;;
48026;SDS011;50714;49.208;5.364;2022-07-29T17:43:28;1.20;;;0.60;;
48026;SDS011;50714;49.208;5.364;2022-07-29T17:53:29;0.93;;;0.50;;
48026;SDS011;50714;49.208;5.364;2022-07-29T18:03:29;0.60;;;0.60;;
48026;SDS011;50714;49.208;5.364;2022-07-29T18:13:30;0.57;;;0.57;;
48026;SDS011;50714;49.208;5.364;2022-07-29T18:23:30;1.38;;;1.08;;
48026;SDS011;50714;49.208;5.364;2022-07-29T18:33:31;0.43;;;0.43;;
48026;SDS011;50714;49.208;5.364;2022-07-29T18:43:31;2.17;;;0.53;;
48026;SDS011;50714;49.208;5.364;2022-07-29T18:53:32;2.35;;;0.90;;
48026;SDS011;50714;49.208;5.364;2022-07-29T19:03:32;1.45;;;0.70;;
48026;SDS011;50714;49.208;5.364;2022-07-29T19:13:32;0.52;;;0.52;;
48026;SDS011;50714;49.208;5.364;2022-07-29T19:23:33;1.40;;;0.70;;
48026;SDS011;50714;49.208;5.364;2022-07-29T19:33:33;1.38;;;0.80;;
48026;SDS011;50714;49.208;5.364;2022-07-29T19:43:34;0.65;;;0.63;;
48026;SDS011;50714;49.208;5.364;2022-07-29T19:53:34;2.95;;;0.90;;
48026;SDS011;50714;49.208;5.364;2022-07-29T20:03:35;1.60;;;1.17;;
48026;SDS011;50714;49.208;5.364;2022-07-29T20:13:35;1.77;;;1.20;;
48026;SDS011;50714;49.208;5.364;2022-07-29T20:23:36;1.60;;;1.05;;
48026;SDS011;50714;49.208;5.364;2022-07-29T20:33:36;1.45;;;0.88;;
48026;SDS011;50714;49.208;5.364;2022-07-29T20:43:36;2.10;;;0.95;;
48026;SDS011;50714;49.208;5.364;2022-07-29T20:53:37;0.80;;;0.80;;
48026;SDS011;50714;49.208;5.364;2022-07-29T21:03:38;0.80;;;0.80;;
48026;SDS011;50714;49.208;5.364;2022-07-29T21:13:39;0.90;;;0.82;;
48026;SDS011;50714;49.208;5.364;2022-07-29T21:23:40;0.98;;;0.85;;
48026;SDS011;50714;49.208;5.364;2022-07-29T21:33:42;0.82;;;0.73;;
48026;SDS011;50714;49.208;5.364;2022-07-29T21:43:44;0.98;;;0.93;;
48026;SDS011;50714;49.208;5.364;2022-07-29T21:53:45;1.45;;;1.08;;
48026;SDS011;50714;49.208;5.364;2022-07-29T22:03:45;0.80;;;0.80;;
48026;SDS011;50714;49.208;5.364;2022-07-29T22:13:45;1.13;;;0.70;;
48026;SDS011;50714;49.208;5.364;2022-07-29T22:23:46;0.90;;;0.73;;
48026;SDS011;50714;49.208;5.364;2022-07-29T22:33:48;1.33;;;0.90;;
48026;SDS011;50714;49.208;5.364;2022-07-29T22:43:49;1.17;;;0.90;;
48026;SDS011;50714;49.208;5.364;2022-07-29T22:53:50;1.40;;;0.90;;
48026;SDS011;50714;49.208;5.364;2022-07-29T23:03:50;1.33;;;0.90;;
48026;SDS011;50714;49.208;5.364;2022-07-29T23:13:51;1.00;;;0.90;;
48026;SDS011;50714;49.208;5.364;2022-07-29T23:23:51;1.55;;;1.00;;
48026;SDS011;50714;49.208;5.364;2022-07-29T23:33:52;1.10;;;1.00;;
48026;SDS011;50714;49.208;5.364;2022-07-29T23:43:52;1.40;;;0.90;;
48026;SDS011;50714;49.208;5.364;2022-07-29T23:53:52;1.98;;;1.00;;
